createdAt,value
2024-02-09T00:02:22.069Z,12.50
2024-02-09T00:06:30.877Z,12.40
2024-02-09T00:10:41.613Z,12.40
2024-02-09T00:14:50.500Z,12.30
2024-02-09T00:18:59.369Z,12.20
2024-02-09T00:23:09.895Z,12.30
2024-02-09T00:27:20.952Z,12.40
2024-02-09T00:31:29.795Z,12.40
2024-02-09T00:35:41.007Z,12.40
2024-02-09T00:39:49.877Z,12.30
2024-02-09T00:44:00.066Z,12.30
2024-02-09T00:48:09.479Z,12.20
2024-02-09T00:52:18.315Z,12.10
2024-02-09T00:56:27.565Z,12.20
2024-02-09T01:00:41.801Z,12.30
2024-02-09T01:04:51.047Z,12.30
2024-02-09T01:08:59.821Z,12.30
2024-02-09T01:13:26.101Z,12.30
2024-02-09T01:17:53.627Z,12.20
2024-02-09T01:22:19.877Z,12.30
2024-02-09T01:26:46.309Z,12.20
2024-02-09T01:31:12.294Z,12.20
2024-02-09T01:35:39.790Z,12.30
2024-02-09T01:40:06.041Z,12.40
2024-02-09T01:44:32.365Z,12.40
2024-02-09T01:48:59.833Z,12.40
2024-02-09T01:53:27.780Z,12.40
2024-02-09T01:57:54.566Z,12.40
2024-02-09T02:02:21.164Z,12.40
2024-02-09T02:06:47.037Z,12.40
2024-02-09T02:11:14.753Z,12.30
2024-02-09T02:15:41.082Z,12.30
2024-02-09T02:20:07.555Z,12.30
2024-02-09T02:24:37.854Z,12.20
2024-02-09T02:29:05.241Z,12.20
2024-02-09T02:33:31.312Z,12.20
2024-02-09T02:37:57.579Z,12.20
2024-02-09T02:42:05.186Z,12.30
2024-02-09T02:46:18.349Z,12.20
2024-02-09T02:50:44.275Z,12.20
2024-02-09T02:55:10.445Z,12.20
2024-02-09T02:59:48.292Z,12.20
2024-02-09T03:04:15.704Z,12.10
2024-02-09T03:08:45.675Z,12.10
2024-02-09T03:12:53.605Z,12.10
2024-02-09T03:17:02.420Z,12.10
2024-02-09T03:21:21.591Z,12.00
2024-02-09T03:25:31.061Z,12.00
2024-02-09T03:29:41.359Z,12.10
2024-02-09T03:33:51.183Z,12.20
2024-02-09T03:38:01.453Z,12.20
2024-02-09T03:42:10.380Z,12.20
2024-02-09T03:46:20.972Z,12.20
2024-02-09T03:50:29.791Z,12.20
2024-02-09T03:54:39.967Z,12.30
2024-02-09T03:58:48.773Z,12.30
2024-02-09T04:02:57.718Z,12.20
2024-02-09T04:07:07.722Z,12.10
2024-02-09T04:11:25.490Z,12.10
2024-02-09T04:15:34.487Z,12.10
2024-02-09T04:19:43.424Z,12.10
2024-02-09T04:23:53.201Z,12.10
2024-02-09T04:28:05.551Z,12.10
2024-02-09T04:32:14.413Z,12.20
2024-02-09T04:36:23.152Z,12.20
2024-02-09T04:40:31.967Z,12.30
2024-02-09T04:44:42.134Z,12.20
2024-02-09T04:48:50.979Z,12.20
2024-02-09T04:52:59.777Z,12.30
2024-02-09T04:57:09.247Z,12.30
2024-02-09T05:01:29.598Z,12.30
2024-02-09T05:05:38.408Z,12.30
2024-02-09T05:09:47.299Z,12.20
2024-02-09T05:13:56.122Z,12.20
2024-02-09T05:18:06.491Z,12.20
2024-02-09T05:22:15.355Z,12.10
2024-02-09T05:26:24.247Z,12.10
2024-02-09T05:30:33.045Z,12.20
2024-02-09T05:34:47.553Z,12.20
2024-02-09T05:39:00.406Z,12.30
2024-02-09T05:43:09.393Z,12.20
2024-02-09T05:47:18.124Z,12.20
2024-02-09T05:51:28.337Z,12.10
2024-02-09T05:55:40.113Z,12.20
2024-02-09T05:59:48.945Z,12.10
2024-02-09T06:03:58.055Z,12.00
2024-02-09T06:08:10.842Z,12.10
2024-02-09T06:12:19.557Z,12.20
2024-02-09T06:16:28.375Z,12.30
2024-02-09T06:20:37.262Z,12.30
2024-02-09T06:24:47.583Z,12.30
2024-02-09T06:28:56.497Z,12.30
2024-02-09T06:33:05.514Z,12.20
2024-02-09T06:37:15.803Z,12.10
2024-02-09T06:41:26.015Z,11.90
2024-02-09T06:45:36.784Z,11.90
2024-02-09T06:49:47.344Z,11.90
2024-02-09T06:53:57.618Z,11.90
2024-02-09T06:58:08.463Z,11.90
2024-02-09T07:02:19.988Z,11.90
2024-02-09T07:06:29.196Z,12.00
2024-02-09T07:10:38.363Z,12.00
2024-02-09T07:14:48.987Z,11.90
2024-02-09T07:18:58.031Z,11.90
2024-02-09T07:23:07.326Z,11.90
2024-02-09T07:27:17.291Z,11.90
2024-02-09T07:31:28.150Z,12.00
2024-02-09T07:35:37.568Z,12.00
2024-02-09T07:39:46.640Z,12.00
2024-02-09T07:43:57.337Z,11.90
2024-02-09T07:48:08.755Z,11.80
2024-02-09T07:52:17.974Z,11.70
2024-02-09T07:56:27.013Z,11.80
2024-02-09T08:00:36.168Z,11.80
2024-02-09T08:04:47.381Z,11.90
2024-02-09T08:08:56.767Z,12.00
2024-02-09T08:13:06.425Z,12.00
2024-02-09T08:17:19.827Z,12.10
2024-02-09T08:21:30.513Z,12.10
2024-02-09T08:25:39.656Z,12.20
2024-02-09T08:29:55.955Z,12.10
2024-02-09T08:34:05.033Z,12.10
2024-02-09T08:38:15.784Z,12.20
2024-02-09T08:42:24.877Z,12.20
2024-02-09T08:46:34.276Z,12.30
2024-02-09T08:50:43.660Z,12.40
2024-02-09T08:54:54.436Z,12.40
2024-02-09T08:59:04.938Z,12.50
2024-02-09T09:03:15.494Z,12.50
2024-02-09T09:07:24.694Z,12.50
2024-02-09T09:11:35.624Z,12.50
2024-02-09T09:15:45.316Z,12.50
2024-02-09T09:19:54.815Z,12.50
2024-02-09T09:24:03.913Z,12.60
2024-02-09T09:28:15.709Z,12.60
2024-02-09T09:32:25.415Z,12.70
2024-02-09T09:36:35.152Z,12.70
2024-02-09T09:40:45.777Z,12.70
2024-02-09T09:44:56.559Z,12.70
2024-02-09T09:49:07.763Z,12.70
2024-02-09T09:53:18.520Z,12.80
2024-02-09T09:57:27.660Z,12.80
2024-02-09T10:01:40.228Z,12.90
2024-02-09T10:05:49.591Z,13.10
2024-02-09T10:09:59.582Z,13.30
2024-02-09T10:14:16.486Z,13.60
2024-02-09T10:18:27.348Z,13.60
2024-02-09T10:22:37.895Z,13.70
2024-02-09T10:26:51.290Z,13.80
2024-02-09T10:31:01.711Z,13.80
2024-02-09T10:35:12.593Z,13.60
2024-02-09T10:39:21.876Z,13.50
2024-02-09T10:43:36.653Z,13.50
2024-02-09T10:47:47.994Z,13.40
2024-02-09T10:52:02.221Z,13.30
2024-02-09T10:56:14.915Z,13.30
2024-02-09T11:00:24.059Z,13.30
2024-02-09T11:04:34.588Z,13.50
2024-02-09T11:08:48.450Z,13.80
2024-02-09T11:13:01.781Z,14.00
2024-02-09T11:17:10.840Z,14.20
2024-02-09T11:21:23.753Z,14.40
2024-02-09T11:25:36.165Z,14.50
2024-02-09T11:29:45.596Z,14.60
2024-02-09T11:38:06.835Z,14.80
2024-02-09T11:42:31.091Z,14.80
2024-02-09T11:46:45.052Z,14.70
2024-02-09T11:50:58.934Z,14.50
2024-02-09T11:55:08.901Z,14.40
2024-02-09T11:59:19.995Z,14.30
2024-02-09T12:03:29.490Z,14.10
2024-02-09T12:07:39.163Z,13.90
2024-02-09T12:11:48.591Z,13.60
2024-02-09T12:16:00.137Z,13.40
2024-02-09T12:20:12.078Z,13.30
2024-02-09T12:24:21.055Z,13.30
2024-02-09T12:28:34.346Z,13.40
2024-02-09T12:32:45.849Z,13.60
2024-02-09T12:37:01.110Z,13.60
2024-02-09T12:41:10.353Z,13.60
2024-02-09T12:45:20.507Z,13.70
2024-02-09T12:49:31.817Z,13.80
2024-02-09T12:53:42.274Z,14.10
2024-02-09T12:57:56.998Z,14.20
2024-02-09T13:02:10.053Z,14.00
2024-02-09T13:06:20.823Z,13.80
2024-02-09T13:10:29.858Z,13.50
2024-02-09T13:14:39.397Z,13.40
2024-02-09T13:18:48.492Z,13.40
2024-02-09T13:22:58.979Z,13.30
2024-02-09T13:27:08.444Z,13.30
2024-02-09T13:31:17.611Z,13.30
2024-02-09T13:35:28.216Z,13.30
2024-02-09T13:39:38.714Z,13.40
2024-02-09T13:43:47.768Z,13.40
2024-02-09T13:47:57.314Z,13.40
2024-02-09T13:52:07.086Z,13.40
2024-02-09T13:56:18.081Z,13.30
2024-02-09T14:00:27.227Z,13.10
2024-02-09T14:04:39.424Z,12.90
2024-02-09T14:08:49.321Z,12.90
2024-02-09T14:12:59.856Z,12.80
2024-02-09T14:17:09.037Z,12.70
2024-02-09T14:21:17.992Z,12.70
2024-02-09T14:25:27.281Z,12.90
2024-02-09T14:29:41.037Z,13.10
2024-02-09T14:33:50.378Z,13.30
2024-02-09T14:38:01.926Z,13.30
2024-02-09T14:42:13.274Z,13.40
2024-02-09T14:46:26.340Z,13.50
2024-02-09T14:50:35.599Z,13.50
2024-02-09T14:54:46.506Z,13.40
2024-02-09T14:58:56.658Z,13.30
2024-02-09T15:03:08.756Z,13.30
2024-02-09T15:07:21.304Z,13.30
2024-02-09T15:11:31.339Z,13.30
2024-02-09T15:15:44.327Z,13.40
2024-02-09T15:19:55.324Z,13.40
2024-02-09T15:24:04.372Z,13.40
2024-02-09T15:28:14.951Z,13.30
2024-02-09T15:32:24.092Z,13.30
2024-02-09T15:36:34.507Z,13.30
2024-02-09T15:40:43.454Z,13.30
2024-02-09T15:44:54.254Z,13.40
2024-02-09T15:49:03.241Z,13.40
2024-02-09T15:53:13.834Z,13.30
2024-02-09T15:57:24.754Z,13.20
2024-02-09T16:01:38.588Z,13.20
2024-02-09T16:05:47.868Z,13.20
2024-02-09T16:09:58.735Z,13.40
2024-02-09T16:14:11.818Z,13.30
2024-02-09T16:18:20.850Z,13.20
2024-02-09T16:22:31.428Z,13.20
2024-02-09T16:26:42.413Z,13.20
2024-02-09T16:30:51.341Z,13.20
2024-02-09T16:35:02.303Z,13.20
2024-02-09T16:39:14.745Z,13.10
2024-02-09T16:43:25.396Z,13.00
2024-02-09T16:47:35.469Z,12.80
2024-02-09T16:51:44.536Z,12.60
2024-02-09T16:55:54.057Z,12.50
2024-02-09T17:00:06.094Z,12.40
2024-02-09T17:04:15.210Z,12.40
2024-02-09T17:08:24.295Z,12.30
2024-02-09T17:12:33.441Z,12.20
2024-02-09T17:16:43.988Z,12.20
2024-02-09T17:20:53.302Z,12.10
2024-02-09T17:25:03.588Z,12.10
2024-02-09T17:29:12.634Z,12.00
2024-02-09T17:33:23.575Z,12.00
2024-02-09T17:37:32.559Z,11.90
2024-02-09T17:41:42.156Z,11.90
2024-02-09T17:45:51.161Z,11.70
2024-02-09T17:50:01.791Z,11.60
2024-02-09T17:54:10.935Z,11.70
2024-02-09T17:58:19.902Z,11.60
2024-02-09T18:02:28.949Z,11.60
2024-02-09T18:06:40.164Z,11.50
2024-02-09T18:10:49.406Z,11.40
2024-02-09T18:14:59.664Z,11.30
2024-02-09T18:19:09.941Z,11.20
2024-02-09T18:23:20.976Z,11.20
2024-02-09T18:27:31.551Z,11.10
2024-02-09T18:31:41.002Z,11.10
2024-02-09T18:35:54.208Z,11.00
2024-02-09T18:40:14.329Z,11.00
2024-02-09T18:44:23.371Z,11.10
2024-02-09T18:48:32.449Z,11.20
2024-02-09T18:52:43.674Z,11.20
2024-02-09T18:56:54.190Z,11.10
2024-02-09T19:01:03.139Z,11.10
2024-02-09T19:05:15.122Z,11.10
2024-02-09T19:09:24.290Z,11.10
2024-02-09T19:13:36.017Z,11.10
2024-02-09T19:17:48.678Z,11.10
2024-02-09T19:21:59.535Z,11.20
2024-02-09T19:26:10.065Z,11.40
2024-02-09T19:30:20.670Z,11.40
2024-02-09T19:34:29.890Z,11.30
2024-02-09T19:38:43.577Z,11.30
2024-02-09T19:42:53.871Z,11.30
2024-02-09T19:47:04.379Z,11.30
2024-02-09T19:51:14.809Z,11.20
2024-02-09T19:55:23.920Z,11.30
2024-02-09T19:59:34.288Z,11.30
2024-02-09T20:03:45.396Z,11.40
2024-02-09T20:07:54.331Z,11.50
2024-02-09T20:12:03.630Z,11.50
2024-02-09T20:16:12.595Z,11.60
2024-02-09T20:20:25.256Z,11.60
2024-02-09T20:24:37.112Z,11.60
2024-02-09T20:28:46.209Z,11.60
2024-02-09T20:32:55.826Z,11.60
2024-02-09T20:37:06.370Z,11.60
2024-02-09T20:41:18.877Z,11.50
2024-02-09T20:45:30.806Z,11.50
2024-02-09T20:49:42.797Z,11.50
2024-02-09T20:53:57.397Z,11.50
2024-02-09T20:58:08.700Z,11.40
2024-02-09T21:02:18.207Z,11.30
2024-02-09T21:06:30.217Z,11.30
2024-02-09T21:10:40.875Z,11.20
2024-02-09T21:14:49.951Z,11.20
2024-02-09T21:18:58.988Z,11.10
2024-02-09T21:23:09.353Z,11.10
2024-02-09T21:27:19.912Z,11.00
2024-02-09T21:31:28.887Z,10.90
2024-02-09T21:35:37.969Z,10.90
2024-02-09T21:39:46.880Z,10.90
2024-02-09T21:43:58.261Z,10.80
2024-02-09T21:48:07.943Z,10.80
2024-02-09T21:52:18.960Z,10.80
2024-02-09T21:56:28.739Z,10.80
2024-02-09T22:00:42.882Z,10.90
2024-02-09T22:04:53.217Z,11.00
2024-02-09T22:09:02.254Z,11.10
2024-02-09T22:13:11.362Z,11.30
2024-02-09T22:17:21.892Z,11.20
2024-02-09T22:21:30.953Z,10.90
2024-02-09T22:25:43.117Z,10.90
2024-02-09T22:29:53.747Z,10.80
2024-02-09T22:34:04.268Z,10.70
2024-02-09T22:38:15.311Z,10.60
2024-02-09T22:42:24.996Z,10.60
2024-02-09T22:46:35.202Z,10.60
2024-02-09T22:50:45.859Z,10.50
2024-02-09T22:54:57.023Z,10.40
2024-02-09T22:59:06.136Z,10.40
2024-02-09T23:03:15.146Z,10.30
2024-02-09T23:07:25.962Z,10.20
2024-02-09T23:11:35.081Z,10.20
2024-02-09T23:15:44.337Z,10.20
2024-02-09T23:19:54.383Z,10.20
2024-02-09T23:24:05.029Z,10.20
2024-02-09T23:28:14.112Z,10.20
2024-02-09T23:32:22.958Z,10.20
2024-02-09T23:36:34.549Z,10.10
2024-02-09T23:40:46.037Z,10.00
2024-02-09T23:44:54.784Z,10.00
2024-02-09T23:49:04.122Z,10.10
2024-02-09T23:53:15.339Z,10.10
2024-02-09T23:57:25.897Z,10.10
